Bushnell, FL (33513)

4:16 PM EST on February 10, 2016 (GMT -0500)
South Sumter High School WeatherSTEM | | Change Station
CLOSE
Current Station
Personal Weather Station
Location: Bushnell, FL
Elevation: 98 ft
Nearby Weather Stations
Active Advisory: Freeze Warning

Elev 98 ft 28.67 °N, 82.12 °W | Updated 7 minutes ago

Clear
Clear
52.2 °F
Feels Like 52.2 °F
N
12.0
Wind Variable Wind from West
Gusts 21.0 mph

Today
High -- | Low -- °F
--% Chance of Precip.
Yesterday
High -- | Low -- °F
Precip. -- in
Pressure 30.22 in
Visibility 10.0 miles
Clouds Clear
Dew Point 24 °F
Humidity 34%
Rainfall 0.00 in
Snow Depth Not available.
7:11 AM 6:14 PM
Waxing Crescent, 7% visible
METAR KINF 102055Z AUTO 29006KT 240V350 10SM CLR 11/M01 A3022 RMK AO2
Pressure 30.22 in
Visibility 10.0 miles
Clouds Clear
Dew Point 24 °F
Humidity 34%
Rainfall 0.00 in
Snow Depth Not available.
7:11 AM 6:14 PM
Waxing Crescent, 7% visible
METAR KINF 102055Z AUTO 29006KT 240V350 10SM CLR 11/M01 A3022 RMK AO2

10-Day Weather Forecast

Almanac

Astronomy

Feb. 10, 2016 Rise Set
Actual Time
Civil Twilight
Nautical Twilight
Astronomical Twilight
Moon
Length of Visible Light
Length of Day
Tomorrow will be .
, % of the Moon is Illuminated

Today's Extremes

State Highs State Lows

Community

WunderPhotos

Upload Photos

1,891,949 photos uploaded!

WunderBlog® & News

Nearby

Air Quality

  Air Quality AQ Index Pollutant
Not available.

Snow Depth

Station Depth Elevation

Earthquake Activity

City Distance Mag. Time & Date
Minimum magnitude displayed is 2.5.

Coastal Water Temperatures

Place Temperature

Stations

Nearby Weather Stations

Station Location Temp. Windchill Dew Point Humidity Wind Precip. Elev Updated Type
                   

Watches & Warnings

Freeze Warning
Issued: 2:43 PM EST Feb. 10, 2016 – National Weather Service

... Freeze warning in effect from 3 am to 9 am EST Thursday...

The National Weather Service in Tampa Bay area - Ruskin FL has
issued a freeze warning... which is in effect from 3 am to 9 am
EST Thursday. The freeze watch is no longer in effect.

* Temperature... 29 to 32 degrees

* impacts... 2 or more hours of temperatures at or below freezing
are possible.

Precautionary/preparedness actions...

Precautionary/preparedness actions...

A freeze warning is issued for 2 or more hours of temperatures
between 27 and 32 over a widespread area.

Residents should cover or move indoors any cold sensitive
plants... and bring pets indoors this evening.